Time;durP1;ratioP1;P1;durP2;ratioP2;P2;SDS_P1;SDS_P2;PMS_P1;PMS_P2;Temp;Humidity;BMP_temperature;BMP_pressure;BME280_temperature;BME280_humidity;BME280_pressure;Samples;Min_cycle;Max_cycle;Signal;HPM_P1;HPM_P2
2022/10/09 00:00:12;;;;;;;1.30;1.20;;;;;;;6.57;61.40;97696.00;6298112;28;20134;-68
2022/10/09 00:03:17;;;;;;;1.60;1.30;;;;;;;6.58;61.69;97700.31;6297785;28;20071;-69
2022/10/09 00:06:26;;;;;;;1.35;1.30;;;;;;;6.66;61.42;97706.13;6297137;28;20078;-68
2022/10/09 00:09:34;;;;;;;1.75;1.65;;;;;;;6.80;60.57;97710.00;6297965;28;20047;-68
2022/10/09 00:12:35;;;;;;;1.40;1.30;;;;;;;6.71;60.64;97709.41;6297843;28;20584;-68
2022/10/09 00:15:41;;;;;;;2.33;1.30;;;;;;;6.69;61.19;97715.63;6297127;28;20075;-68
2022/10/09 00:18:46;;;;;;;1.30;1.23;;;;;;;6.73;60.98;97728.50;6297391;28;20053;-68
2022/10/09 00:21:48;;;;;;;1.50;1.40;;;;;;;6.75;60.89;97725.84;6296748;28;20071;-67
2022/10/09 00:24:51;;;;;;;1.30;1.20;;;;;;;6.78;60.77;97735.34;6297268;28;20056;-68
2022/10/09 00:27:56;;;;;;;1.25;1.10;;;;;;;6.81;60.75;97740.47;6296905;28;20407;-68
2022/10/09 00:30:57;;;;;;;1.10;1.10;;;;;;;6.87;60.57;97741.09;6296677;28;20524;-68
2022/10/09 00:34:01;;;;;;;2.65;1.40;;;;;;;6.88;60.63;97745.44;6296916;28;20055;-68
2022/10/09 00:37:05;;;;;;;2.40;1.50;;;;;;;6.75;61.03;97747.63;6297109;28;20036;-68
2022/10/09 00:40:07;;;;;;;1.88;1.65;;;;;;;6.60;61.28;97747.34;6296829;28;20048;-69
2022/10/09 00:43:18;;;;;;;2.50;1.52;;;;;;;6.52;61.59;97758.91;6296360;28;20052;-69
2022/10/09 00:46:47;;;;;;;2.28;1.67;;;;;;;6.43;62.06;97766.22;6296407;28;20055;-69
2022/10/09 00:49:55;;;;;;;3.00;2.30;;;;;;;6.28;62.24;97763.22;6296861;28;20032;-69
2022/10/09 00:53:02;;;;;;;4.85;2.72;;;;;;;6.16;62.65;97763.59;6296789;28;20048;-69
2022/10/09 00:56:04;;;;;;;4.53;2.65;;;;;;;5.99;63.13;97765.91;6296866;28;20053;-69
2022/10/09 00:59:06;;;;;;;3.95;2.83;;;;;;;5.78;64.05;97764.81;6294569;28;20197;-69
2022/10/09 01:02:13;;;;;;;3.70;3.05;;;;;;;5.68;64.42;97776.44;6296618;28;20044;-69
2022/10/09 01:05:17;;;;;;;2.05;1.80;;;;;;;5.76;64.24;97780.50;6294330;28;20186;-69
2022/10/09 01:08:29;;;;;;;;;;;;;;;5.69;63.96;97784.25;6295860;28;20425;-69
2022/10/09 01:11:49;;;;;;;2.47;2.08;;;;;;;5.69;64.62;97794.69;6295579;28;19924;-69
2022/10/09 01:15:04;;;;;;;2.25;1.90;;;;;;;5.67;64.51;97799.09;6295846;28;20125;-69
2022/10/09 01:18:31;;;;;;;2.85;2.00;;;;;;;5.56;64.65;97799.41;6296197;28;20116;-69
2022/10/09 01:21:46;;;;;;;3.40;1.60;;;;;;;5.50;64.76;97793.53;6295679;28;20053;-69
2022/10/09 01:25:11;;;;;;;0.90;0.88;;;;;;;5.47;64.88;97798.84;6295523;28;20051;-69
2022/10/09 01:28:17;;;;;;;1.35;1.00;;;;;;;5.47;64.74;97794.47;6295926;28;20040;-69
2022/10/09 01:31:27;;;;;;;1.90;1.00;;;;;;;5.55;64.20;97791.63;6296165;28;20071;-69
2022/10/09 01:34:30;;;;;;;0.82;0.82;;;;;;;5.61;63.98;97807.09;6295383;28;20454;-69
2022/10/09 01:37:40;;;;;;;0.98;0.88;;;;;;;5.62;63.67;97803.59;6296091;28;20565;-69
2022/10/09 01:40:42;;;;;;;1.38;1.25;;;;;;;5.54;64.01;97792.50;6293986;28;20125;-69
2022/10/09 01:43:46;;;;;;;1.00;0.77;;;;;;;5.58;63.43;97799.38;6295260;28;20057;-69
2022/10/09 01:46:51;;;;;;;0.90;0.80;;;;;;;5.61;63.71;97801.88;6295008;28;20045;-69
2022/10/09 01:50:00;;;;;;;0.90;0.85;;;;;;;5.59;63.33;97808.91;6295101;28;20520;-69
2022/10/09 01:53:11;;;;;;;1.60;0.82;;;;;;;5.53;63.74;97812.56;6295243;28;20044;-69
2022/10/09 01:56:23;;;;;;;1.25;0.90;;;;;;;5.48;63.53;97808.38;6295763;28;20048;-69
2022/10/09 01:59:30;;;;;;;2.72;0.98;;;;;;;5.47;63.53;97819.72;6294971;28;20098;-69
2022/10/09 02:02:38;;;;;;;1.80;0.88;;;;;;;5.52;63.61;97815.19;6295563;28;20044;-69
2022/10/09 02:05:42;;;;;;;2.75;0.80;;;;;;;5.59;63.29;97820.19;6295405;28;20512;-69
2022/10/09 02:08:48;;;;;;;1.73;0.73;;;;;;;5.52;62.80;97807.38;6295035;28;20556;-69
2022/10/09 02:11:56;;;;;;;1.67;0.70;;;;;;;5.57;63.19;97823.75;6294842;28;20186;-69
2022/10/09 02:15:03;;;;;;;0.77;0.65;;;;;;;5.53;63.22;97819.53;6295128;28;20036;-69
2022/10/09 02:18:13;;;;;;;1.20;0.88;;;;;;;5.54;63.05;97814.25;6294703;28;20045;-69
2022/10/09 02:21:26;;;;;;;0.60;0.60;;;;;;;5.50;63.20;97824.84;6297890;28;20119;-69
2022/10/09 02:24:28;;;;;;;2.97;0.60;;;;;;;5.51;63.05;97826.53;6300386;28;20052;-68
2022/10/09 02:27:30;;;;;;;1.20;0.70;;;;;;;5.54;63.01;97831.69;6299516;28;20075;-69
2022/10/09 02:31:33;;;;;;;1.30;0.85;;;;;;;5.54;62.93;97824.69;6299988;28;20456;-68
2022/10/09 02:34:37;;;;;;;1.77;0.80;;;;;;;5.57;62.96;97836.81;6268993;28;20048;-69
2022/10/09 02:37:41;;;;;;;4.50;1.50;;;;;;;5.59;62.67;97832.41;6298773;28;20045;-70
2022/10/09 02:40:44;;;;;;;6.22;1.60;;;;;;;5.53;62.70;97829.97;6299878;28;20044;-68
2022/10/09 02:43:47;;;;;;;3.63;1.50;;;;;;;5.58;62.64;97818.50;6299733;28;20182;-68
2022/10/09 02:46:52;;;;;;;5.45;2.17;;;;;;;5.56;62.63;97814.22;6299149;28;20422;-68
2022/10/09 02:49:55;;;;;;;3.33;1.67;;;;;;;5.58;62.36;97822.88;6299486;28;20502;-69
2022/10/09 02:52:56;;;;;;;6.47;2.03;;;;;;;5.55;62.42;97826.44;6299584;28;20624;-69
2022/10/09 02:56:03;;;;;;;4.20;1.55;;;;;;;5.54;62.54;97832.53;6299649;28;20044;-69
2022/10/09 02:59:07;;;;;;;2.53;0.93;;;;;;;5.57;62.61;97837.66;6298757;28;20084;-69
2022/10/09 03:02:14;;;;;;;1.90;0.70;;;;;;;5.68;62.21;97847.78;6299646;28;20044;-68
2022/10/09 03:05:18;;;;;;;4.22;0.73;;;;;;;5.73;62.38;97838.06;6299441;28;20488;-68
2022/10/09 03:08:19;;;;;;;1.17;0.90;;;;;;;5.89;61.93;97848.03;6298965;28;20047;-68
2022/10/09 03:11:22;;;;;;;1.05;0.73;;;;;;;6.03;61.59;97853.75;6299230;28;20036;-69
2022/10/09 03:14:30;;;;;;;0.77;0.75;;;;;;;6.15;61.06;97848.13;6299264;28;20414;-69
2022/10/09 03:17:33;;;;;;;1.20;0.75;;;;;;;6.27;60.71;97839.88;6299116;28;20130;-69
2022/10/09 03:20:36;;;;;;;2.40;0.73;;;;;;;6.39;60.37;97854.31;6298592;28;20048;-70
2022/10/09 03:23:40;;;;;;;0.95;0.55;;;;;;;6.45;60.25;97848.88;6298879;28;20080;-70
2022/10/09 03:26:44;;;;;;;0.68;0.60;;;;;;;6.55;60.40;97852.06;6298878;28;20049;-69
2022/10/09 03:29:48;;;;;;;2.92;0.60;;;;;;;6.65;60.00;97861.34;6298174;28;20536;-69
2022/10/09 03:32:49;;;;;;;1.15;0.80;;;;;;;6.74;60.19;97850.56;6297767;28;20054;-69
2022/10/09 03:35:50;;;;;;;4.18;1.67;;;;;;;6.85;59.87;97857.16;6298313;28;20049;-69
2022/10/09 03:38:55;;;;;;;0.93;0.80;;;;;;;7.04;59.66;97862.63;6298092;28;20044;-69
2022/10/09 03:42:01;;;;;;;0.98;0.82;;;;;;;7.22;59.12;97859.38;6298729;28;20502;-69
2022/10/09 03:45:06;;;;;;;4.05;2.53;;;;;;;7.48;58.49;97868.91;6298299;28;20418;-70
2022/10/09 03:48:10;;;;;;;2.85;1.30;;;;;;;7.72;58.01;97874.13;6298234;28;20044;-70
2022/10/09 03:51:11;;;;;;;1.55;0.77;;;;;;;7.98;57.44;97868.78;6297776;28;20049;-67
2022/10/09 03:54:15;;;;;;;1.50;0.60;;;;;;;8.22;56.66;97869.56;6298051;28;20123;-69
2022/10/09 03:57:20;;;;;;;1.08;0.80;;;;;;;8.39;56.33;97858.44;6298307;28;20040;-69
2022/10/09 04:00:21;;;;;;;1.27;0.50;;;;;;;8.49;55.71;97867.66;6297037;28;20133;-69
2022/10/09 04:03:26;;;;;;;3.20;0.73;;;;;;;8.52;55.81;97870.16;6297993;28;20131;-69
2022/10/09 04:06:30;;;;;;;0.60;0.50;;;;;;;8.56;56.04;97864.78;6297881;28;20041;-69
2022/10/09 04:09:31;;;;;;;0.70;0.43;;;;;;;8.63;55.45;97874.94;6296620;28;20067;-69
2022/10/09 04:12:35;;;;;;;1.67;0.60;;;;;;;8.72;54.99;97879.00;6296108;28;20453;-69
2022/10/09 04:15:37;;;;;;;1.67;0.77;;;;;;;8.98;54.38;97878.75;6296828;28;20052;-68
2022/10/09 04:18:40;;;;;;;1.23;0.40;;;;;;;9.24;53.54;97878.53;6296689;28;20181;-69
2022/10/09 04:21:42;;;;;;;0.80;0.60;;;;;;;9.62;52.71;97890.84;6296764;28;20060;-69
2022/10/09 04:24:43;;;;;;;0.93;0.60;;;;;;;10.03;51.95;97885.47;6296729;28;20052;-69
2022/10/09 04:27:45;;;;;;;1.38;0.40;;;;;;;10.47;50.40;97892.22;6296471;28;20418;-69
2022/10/09 04:30:46;;;;;;;4.43;0.60;;;;;;;10.79;49.29;97891.50;6296259;28;20052;-69
2022/10/09 04:33:53;;;;;;;1.17;0.60;;;;;;;11.22;48.03;97901.66;6296553;28;20080;-69
2022/10/09 04:37:01;;;;;;;2.67;0.73;;;;;;;11.55;46.32;97895.56;6296166;28;20040;-69
2022/10/09 04:40:03;;;;;;;2.78;1.30;;;;;;;11.76;45.75;97893.59;6296423;28;20048;-69
2022/10/09 04:43:05;;;;;;;2.42;1.08;;;;;;;11.97;45.10;97897.72;6296390;28;20178;-69
2022/10/09 04:46:09;;;;;;;1.40;1.00;;;;;;;12.17;44.73;97898.44;6296273;28;20044;-69
2022/10/09 04:49:13;;;;;;;2.05;1.15;;;;;;;12.64;44.08;97908.13;6296961;28;20036;-69
2022/10/09 04:52:16;;;;;;;2.35;1.48;;;;;;;12.95;43.48;97905.44;6296664;28;20131;-71
2022/10/09 04:55:18;;;;;;;3.90;1.60;;;;;;;13.12;42.69;97906.25;6296196;28;20044;-69
2022/10/09 04:58:20;;;;;;;2.83;1.58;;;;;;;13.23;42.77;97895.91;6296024;28;20083;-69
2022/10/09 05:01:30;;;;;;;1.80;1.20;;;;;;;13.29;42.50;97900.84;6296136;28;20351;-69
2022/10/09 05:04:34;;;;;;;4.78;1.02;;;;;;;13.32;42.64;97908.59;6296351;28;20497;-69
2022/10/09 05:07:39;;;;;;;2.75;1.30;;;;;;;13.51;42.11;97910.16;6295618;28;20044;-70
2022/10/09 05:10:43;;;;;;;2.47;1.30;;;;;;;13.73;41.28;97918.50;6296116;28;20041;-69
2022/10/09 05:13:47;;;;;;;3.42;1.42;;;;;;;13.87;40.67;97922.91;6296203;28;20048;-69
2022/10/09 05:16:51;;;;;;;1.23;0.90;;;;;;;13.92;40.40;97919.03;6295587;28;20506;-69
2022/10/09 05:19:53;;;;;;;1.88;1.10;;;;;;;13.92;39.98;97916.38;6295409;28;20577;-70
2022/10/09 05:22:57;;;;;;;4.78;2.20;;;;;;;14.32;39.90;97921.88;6295467;28;20049;-69
2022/10/09 05:26:04;;;;;;;2.20;1.05;;;;;;;18.15;34.36;97923.09;6295718;28;20070;-70
2022/10/09 05:29:06;;;;;;;2.85;1.20;;;;;;;20.81;30.22;97930.16;6295812;28;20190;-69
2022/10/09 05:32:07;;;;;;;1.10;0.90;;;;;;;21.60;28.20;97929.22;6295236;28;20049;-68
2022/10/09 05:35:09;;;;;;;1.58;0.90;;;;;;;21.90;27.72;97928.19;6295616;28;20063;-70
2022/10/09 05:38:15;;;;;;;3.90;0.82;;;;;;;23.69;25.53;97933.94;6294535;28;20139;-70
2022/10/09 05:41:21;;;;;;;5.22;1.00;;;;;;;24.59;24.20;97942.59;6295698;28;20418;-69
2022/10/09 05:44:29;;;;;;;2.50;0.98;;;;;;;26.38;21.72;97936.53;6295482;28;20094;-68
2022/10/09 05:47:33;;;;;;;2.63;0.95;;;;;;;28.21;20.32;97929.59;6295365;28;20050;-69
2022/10/09 05:50:37;;;;;;;1.13;0.80;;;;;;;29.24;18.94;97937.81;6295854;28;20037;-70
2022/10/09 05:53:43;;;;;;;2.25;0.77;;;;;;;29.12;18.06;97936.66;6295359;28;20135;-69
2022/10/09 05:56:45;;;;;;;2.67;0.70;;;;;;;29.99;17.69;97925.59;6294392;28;20501;-68
2022/10/09 05:59:46;;;;;;;1.50;0.50;;;;;;;31.19;17.26;97928.97;6294271;28;20056;-68
2022/10/09 06:02:51;;;;;;;1.05;0.77;;;;;;;32.58;15.84;97929.06;6295360;28;20154;-69
2022/10/09 06:06:03;;;;;;;1.00;0.60;;;;;;;32.83;15.60;97928.31;6295385;28;20098;-69
2022/10/09 06:09:07;;;;;;;1.38;0.57;;;;;;;33.00;15.10;97926.78;6294601;28;20433;-69
2022/10/09 06:12:12;;;;;;;1.85;0.43;;;;;;;33.67;14.55;97921.81;6294679;28;20052;-69
2022/10/09 06:15:13;;;;;;;1.92;0.57;;;;;;;34.22;14.11;97928.50;6294733;28;20044;-69
2022/10/09 06:18:17;;;;;;;2.00;0.60;;;;;;;34.76;14.02;97913.22;6294939;28;20041;-71
2022/10/09 06:21:28;;;;;;;1.10;0.70;;;;;;;35.16;13.21;97924.50;6294940;28;20050;-68
2022/10/09 06:24:30;;;;;;;4.40;1.60;;;;;;;35.12;13.14;97925.19;6294447;28;20055;-69
2022/10/09 06:27:31;;;;;;;2.33;0.90;;;;;;;35.03;12.80;97913.72;6294411;28;20410;-69
2022/10/09 06:30:33;;;;;;;1.60;0.82;;;;;;;35.34;12.67;97931.00;6292781;28;20052;-69
2022/10/09 06:33:38;;;;;;;1.75;0.60;;;;;;;35.56;12.32;97926.69;6294816;28;20088;-69
2022/10/09 06:36:42;;;;;;;2.15;0.77;;;;;;;36.47;12.33;97930.00;6294827;28;20413;-69
2022/10/09 06:39:49;;;;;;;1.50;0.47;;;;;;;35.75;11.93;97925.53;6294580;28;20084;-71
2022/10/09 06:42:55;;;;;;;1.42;1.17;;;;;;;35.55;12.47;97927.72;6293741;28;20044;-69
2022/10/09 06:46:02;;;;;;;2.03;0.70;;;;;;;36.03;11.78;97914.97;6294222;28;20048;-68
2022/10/09 06:49:08;;;;;;;0.98;0.60;;;;;;;35.46;12.21;97929.13;6294439;28;20477;-68
2022/10/09 06:52:11;;;;;;;0.85;0.60;;;;;;;34.82;12.47;97924.06;6294643;28;20051;-69
2022/10/09 06:55:15;;;;;;;1.42;0.52;;;;;;;33.62;13.48;97916.16;6294277;28;20048;-69
2022/10/09 06:58:16;;;;;;;2.50;0.80;;;;;;;32.87;13.95;97915.94;6294671;28;20040;-69
2022/10/09 07:01:23;;;;;;;3.15;1.08;;;;;;;32.86;13.79;97914.25;6294731;28;20044;-69
2022/10/09 07:04:24;;;;;;;1.95;1.05;;;;;;;33.87;13.43;97912.63;6293814;28;20532;-68
2022/10/09 07:07:31;;;;;;;2.40;1.00;;;;;;;34.70;12.60;97909.50;6296785;28;20490;-68
2022/10/09 07:10:37;;;;;;;2.17;0.90;;;;;;;34.92;12.58;97917.22;6299008;28;20044;-68
2022/10/09 07:13:41;;;;;;;2.97;0.88;;;;;;;34.83;12.74;97903.88;6298418;28;20040;-68
2022/10/09 07:16:47;;;;;;;1.23;0.50;;;;;;;33.67;13.19;97910.06;6299116;28;20037;-69
2022/10/09 07:19:51;;;;;;;4.10;0.80;;;;;;;33.86;13.12;97903.59;6299185;28;20048;-69
2022/10/09 07:22:55;;;;;;;3.03;0.55;;;;;;;34.71;12.12;97905.72;6298644;28;20178;-69
2022/10/09 07:26:00;;;;;;;0.75;0.45;;;;;;;35.10;12.16;97917.22;6298603;28;20033;-68
2022/10/09 07:29:07;;;;;;;2.20;0.80;;;;;;;34.47;12.74;97915.63;6298504;28;20040;-69
2022/10/09 07:32:08;;;;;;;2.10;0.63;;;;;;;33.23;13.43;97907.16;6298597;28;20040;-69
2022/10/09 07:35:10;;;;;;;1.95;0.52;;;;;;;33.59;13.17;97902.13;6297735;28;20045;-69
2022/10/09 07:38:11;;;;;;;2.38;0.68;;;;;;;35.39;12.20;97907.34;6298304;28;20040;-68
2022/10/09 07:41:15;;;;;;;1.45;0.90;;;;;;;35.09;12.11;97904.59;6298467;28;20048;-70
2022/10/09 07:44:19;;;;;;;3.13;1.30;;;;;;;34.84;12.25;97899.22;6297414;28;20133;-69
2022/10/09 07:47:28;;;;;;;2.80;1.27;;;;;;;34.44;12.96;97899.69;6298227;28;20040;-69
2022/10/09 07:50:33;;;;;;;3.05;0.93;;;;;;;35.03;12.05;97897.31;6297659;28;20049;-69
2022/10/09 07:53:34;;;;;;;2.03;0.95;;;;;;;35.70;12.00;97903.50;6296191;28;20052;-69
2022/10/09 07:56:39;;;;;;;3.20;0.83;;;;;;;32.89;13.63;97892.00;6297270;28;20054;-69
2022/10/09 07:59:41;;;;;;;2.65;1.13;;;;;;;31.53;14.88;97881.78;6297530;28;20516;-68
2022/10/09 08:02:43;;;;;;;1.90;1.10;;;;;;;32.12;14.68;97885.53;6298042;28;20048;-69
2022/10/09 08:05:54;;;;;;;3.47;1.13;;;;;;;30.35;15.53;97879.31;6297691;28;20155;-68
2022/10/09 08:09:02;;;;;;;2.80;1.00;;;;;;;28.69;16.73;97877.78;6297753;28;20040;-68
2022/10/09 08:12:04;;;;;;;2.35;1.30;;;;;;;31.10;14.99;97876.69;6296661;28;20044;-68
2022/10/09 08:15:06;;;;;;;6.35;2.38;;;;;;;33.51;13.53;97876.75;6296703;28;20135;-70
2022/10/09 08:18:10;;;;;;;2.45;0.77;;;;;;;35.24;12.35;97888.59;6296560;28;20040;-68
2022/10/09 08:21:17;;;;;;;4.15;1.10;;;;;;;36.74;11.34;97880.13;6297306;28;20056;-68
2022/10/09 08:24:23;;;;;;;2.65;0.73;;;;;;;37.57;10.54;97883.38;6296743;28;20062;-70
2022/10/09 08:27:28;;;;;;;1.75;0.50;;;;;;;37.04;10.86;97875.28;6297150;28;20078;-69
2022/10/09 08:30:29;;;;;;;3.23;1.07;;;;;;;37.16;10.23;97877.13;6296953;28;20178;-69
2022/10/09 08:33:31;;;;;;;2.60;1.52;;;;;;;37.12;10.89;97875.97;6295042;28;21023;-69
2022/10/09 08:36:39;;;;;;;2.67;1.83;;;;;;;37.32;10.83;97870.03;6297315;28;20075;-69
2022/10/09 08:39:43;;;;;;;4.57;2.30;;;;;;;37.44;10.46;97887.25;6296359;28;20041;-69
2022/10/09 08:42:55;;;;;;;1.40;1.00;;;;;;;37.76;10.47;97876.56;6296552;28;20414;-69
2022/10/09 08:46:05;;;;;;;2.15;0.75;;;;;;;37.46;10.60;97863.97;6296022;28;20056;-69
2022/10/09 08:49:24;;;;;;;1.92;0.88;;;;;;;38.13;10.65;97865.03;6296504;28;20036;-68
2022/10/09 08:52:48;;;;;;;1.88;0.60;;;;;;;39.68;9.67;97872.94;6296467;28;20041;-69
2022/10/09 08:55:57;;;;;;;2.03;0.63;;;;;;;38.56;10.18;97860.72;6295730;28;20053;-69
2022/10/09 08:59:00;;;;;;;1.10;0.77;;;;;;;37.36;11.07;97849.22;6295958;28;20154;-69
2022/10/09 09:02:31;;;;;;;1.92;1.25;;;;;;;37.91;10.41;97857.56;6296715;28;20502;-69
2022/10/09 09:05:44;;;;;;;1.35;0.90;;;;;;;38.47;10.15;97851.25;6294643;28;20415;-68
2022/10/09 09:09:08;;;;;;;2.35;1.00;;;;;;;38.79;10.08;97857.69;6295737;28;20058;-70
2022/10/09 09:12:33;;;;;;;2.05;1.02;;;;;;;38.81;9.76;97852.78;6296212;28;20127;-70
2022/10/09 09:15:34;;;;;;;2.80;1.30;;;;;;;38.30;10.31;97843.03;6295990;28;20129;-68
2022/10/09 09:18:47;;;;;;;1.75;1.10;;;;;;;36.69;11.32;97847.97;6296066;28;20032;-69
2022/10/09 09:21:52;;;;;;;2.13;0.85;;;;;;;35.50;11.55;97837.25;6295889;28;20048;-68
2022/10/09 09:24:57;;;;;;;1.70;0.85;;;;;;;33.69;13.00;97826.06;6294985;28;20126;-69
2022/10/09 09:28:28;;;;;;;2.63;0.93;;;;;;;30.34;15.83;97823.31;6295768;28;20040;-70
2022/10/09 09:31:35;;;;;;;2.97;0.93;;;;;;;27.40;18.08;97805.97;6289081;28;20135;-69
2022/10/09 09:34:43;;;;;;;2.35;0.80;;;;;;;29.53;16.43;97804.84;6295562;28;20040;-68
2022/10/09 09:37:47;;;;;;;3.13;0.98;;;;;;;29.74;16.24;97803.13;6295488;28;20036;-69
2022/10/09 09:40:52;;;;;;;3.38;1.00;;;;;;;27.15;18.35;97803.47;6295567;28;20040;-68
2022/10/09 09:43:54;;;;;;;3.33;1.70;;;;;;;28.29;17.71;97795.22;6295380;28;20059;-68
2022/10/09 09:46:59;;;;;;;2.95;1.63;;;;;;;31.29;15.33;97799.75;6295304;28;20421;-68
2022/10/09 09:50:04;;;;;;;1.50;0.85;;;;;;;32.45;14.08;97803.75;6295396;28;20040;-68
2022/10/09 09:53:19;;;;;;;2.72;1.05;;;;;;;32.65;14.03;97807.22;6295423;28;20043;-69
2022/10/09 09:56:38;;;;;;;3.55;1.17;;;;;;;32.96;14.10;97805.59;6295440;28;20040;-70
2022/10/09 09:59:42;;;;;;;2.65;1.00;;;;;;;33.15;13.43;97811.13;6294945;28;20147;-69
2022/10/09 10:02:47;;;;;;;2.28;1.00;;;;;;;32.69;13.74;97809.50;6295362;28;20487;-67
2022/10/09 10:05:51;;;;;;;2.90;0.93;;;;;;;30.59;15.40;97801.88;6295146;28;20049;-69
2022/10/09 10:09:03;;;;;;;3.45;1.02;;;;;;;29.40;16.58;97804.72;6295365;28;20044;-69
2022/10/09 10:12:15;;;;;;;2.13;0.82;;;;;;;29.62;16.64;97808.22;6294915;28;20040;-69
2022/10/09 10:15:22;;;;;;;4.25;1.08;;;;;;;29.88;16.20;97802.16;6294030;28;20612;-69
2022/10/09 10:18:31;;;;;;;1.60;1.15;;;;;;;28.04;17.36;97792.81;6293064;28;20147;-69
2022/10/09 10:21:47;;;;;;;3.92;1.40;;;;;;;25.27;20.49;97786.25;6294627;28;20422;-70
2022/10/09 10:24:53;;;;;;;4.45;1.88;;;;;;;24.71;21.34;97795.94;6295008;28;20051;-69
2022/10/09 10:28:09;;;;;;;2.42;0.77;;;;;;;24.31;21.82;97785.94;6295003;28;20048;-69
2022/10/09 10:31:18;;;;;;;2.22;0.93;;;;;;;25.91;20.26;97802.47;6294949;28;20460;-69
2022/10/09 10:34:26;;;;;;;4.40;1.00;;;;;;;27.29;18.73;97805.41;6294252;28;20063;-69
2022/10/09 10:37:35;;;;;;;2.65;0.88;;;;;;;27.82;18.10;97815.38;6294230;28;20559;-71
2022/10/09 10:40:46;;;;;;;2.58;0.60;;;;;;;28.17;18.07;97803.81;6294442;28;20062;-68
2022/10/09 10:43:52;;;;;;;2.25;1.25;;;;;;;29.17;17.42;97804.13;6298738;28;20135;-68
2022/10/09 10:47:11;;;;;;;2.95;1.70;;;;;;;30.14;16.24;97811.50;6299694;28;20068;-68
2022/10/09 10:50:15;;;;;;;2.58;0.90;;;;;;;29.00;16.90;97798.94;6299332;28;20049;-69
2022/10/09 10:53:46;;;;;;;2.78;1.17;;;;;;;28.45;17.33;97789.63;6298675;28;20137;-69
2022/10/09 10:57:20;;;;;;;2.45;1.67;;;;;;;28.15;17.91;97795.03;6259299;28;20601;-69
2022/10/09 11:00:21;;;;;;;3.10;1.40;;;;;;;27.61;18.28;97776.38;6298785;28;20174;-69
2022/10/09 11:03:51;;;;;;;2.17;1.00;;;;;;;27.32;18.61;97788.00;6298558;28;20044;-69
2022/10/09 11:07:17;;;;;;;1.80;0.82;;;;;;;26.42;19.19;97786.72;6276971;28;20492;-70
2022/10/09 11:10:30;;;;;;;1.83;1.10;;;;;;;26.25;19.53;97795.94;6299116;28;20510;-70
2022/10/09 11:13:55;;;;;;;1.75;0.73;;;;;;;26.13;19.79;97786.56;6298599;28;20563;-69
2022/10/09 11:17:16;;;;;;;1.25;0.70;;;;;;;25.26;20.61;97783.72;6298972;28;20036;-69
2022/10/09 11:20:37;;;;;;;3.20;1.35;;;;;;;24.87;21.03;97784.38;6298453;28;20083;-69
2022/10/09 11:23:45;;;;;;;2.97;1.20;;;;;;;23.97;22.01;97776.06;6287239;28;20529;-68
2022/10/09 11:27:06;;;;;;;2.75;1.02;;;;;;;23.39;22.36;97782.97;6298808;28;20506;-68
2022/10/09 11:30:11;;;;;;;1.30;0.80;;;;;;;22.49;23.41;97775.97;6296860;28;20059;-69
2022/10/09 11:33:35;;;;;;;1.80;0.98;;;;;;;22.08;24.18;97780.84;6297425;28;20063;-69
2022/10/09 11:36:42;;;;;;;4.63;1.15;;;;;;;21.40;25.11;97767.75;6290204;28;20048;-69
2022/10/09 11:39:44;;;;;;;3.15;1.02;;;;;;;21.19;25.60;97773.28;6297878;28;20459;-69
2022/10/09 11:43:02;;;;;;;4.18;1.80;;;;;;;21.13;26.06;97779.19;6298234;28;20044;-68
2022/10/09 11:46:09;;;;;;;2.53;1.08;;;;;;;20.99;26.23;97778.66;6297100;28;20414;-69
2022/10/09 11:49:45;;;;;;;3.47;1.20;;;;;;;20.14;27.75;97779.28;6298198;28;20041;-68
2022/10/09 11:53:04;;;;;;;2.10;0.93;;;;;;;19.86;27.82;97775.53;6298223;28;20041;-69
2022/10/09 11:56:18;;;;;;;1.73;1.10;;;;;;;20.25;27.62;97772.97;6297629;28;20055;-69
2022/10/09 11:59:29;;;;;;;1.98;1.08;;;;;;;20.34;27.47;97777.50;6297214;28;20194;-69
2022/10/09 12:02:33;;;;;;;;;;;;;;;20.33;27.04;97775.81;6298167;28;20048;-69
2022/10/09 12:05:37;;;;;;;1.60;1.10;;;;;;;19.95;27.84;97774.72;6297084;28;19927;-69
2022/10/09 12:08:42;;;;;;;2.38;1.10;;;;;;;19.52;28.82;97760.63;6297436;28;20052;-70
2022/10/09 12:12:02;;;;;;;2.60;1.50;;;;;;;19.19;29.03;97774.22;6296492;28;20044;-71
2022/10/09 12:15:37;;;;;;;2.30;1.48;;;;;;;18.18;30.83;97771.00;6296988;28;20076;-70
2022/10/09 12:18:44;;;;;;;3.28;1.23;;;;;;;17.06;32.44;97766.53;6297342;28;20045;-70
2022/10/09 12:22:07;;;;;;;2.55;1.40;;;;;;;16.48;33.77;97760.31;6295235;28;20079;-69
2022/10/09 12:25:31;;;;;;;3.90;1.88;;;;;;;16.20;33.95;97760.66;6296859;28;20047;-69
2022/10/09 12:28:43;;;;;;;2.50;1.60;;;;;;;15.85;34.82;97769.34;6296672;28;20533;-70
2022/10/09 12:31:46;;;;;;;1.80;1.10;;;;;;;16.05;34.51;97766.13;6297301;28;20428;-69
2022/10/09 12:34:50;;;;;;;3.05;2.10;;;;;;;16.25;34.22;97762.00;6297291;28;20048;-70
2022/10/09 12:37:56;;;;;;;3.40;1.85;;;;;;;15.92;35.15;97762.66;6297211;28;20131;-70
2022/10/09 12:41:00;;;;;;;;;;;;;;;15.66;34.52;97764.50;6296716;28;20099;-70
2022/10/09 12:44:05;;;;;;;3.30;1.55;;;;;;;15.45;35.65;97766.84;6296693;28;20390;-69
2022/10/09 12:47:19;;;;;;;3.75;1.88;;;;;;;15.35;36.07;97765.81;6296831;28;20040;-69
2022/10/09 12:50:32;;;;;;;2.63;1.30;;;;;;;15.15;36.39;97749.50;6296787;28;20046;-69
2022/10/09 12:53:45;;;;;;;4.83;1.43;;;;;;;14.93;37.18;97744.81;6296045;28;20510;-69
2022/10/09 12:56:50;;;;;;;2.10;1.33;;;;;;;14.87;37.44;97762.94;6296569;28;20498;-69
2022/10/09 12:59:55;;;;;;;2.45;1.55;;;;;;;14.53;37.86;97770.50;6295695;28;20040;-70
2022/10/09 13:02:57;;;;;;;5.65;2.30;;;;;;;14.30;38.34;97769.38;6277940;28;20139;-69
2022/10/09 13:06:03;;;;;;;2.08;1.40;;;;;;;14.05;39.29;97764.81;6295439;28;20425;-70
2022/10/09 13:09:08;;;;;;;2.88;1.55;;;;;;;13.79;39.59;97761.19;6295834;28;20056;-69
2022/10/09 13:12:26;;;;;;;2.33;1.45;;;;;;;13.58;41.27;97763.38;6296188;28;20041;-70
2022/10/09 13:15:35;;;;;;;2.97;1.60;;;;;;;13.39;41.20;97756.63;6296198;28;20044;-69
2022/10/09 13:18:39;;;;;;;4.50;1.95;;;;;;;13.22;41.40;97764.72;6295611;28;20048;-69
2022/10/09 13:21:43;;;;;;;3.08;1.80;;;;;;;13.06;41.82;97761.28;6296058;28;20048;-70
2022/10/09 13:24:49;;;;;;;3.63;1.58;;;;;;;12.86;42.38;97770.41;6295118;28;20054;-68
2022/10/09 13:27:55;;;;;;;7.45;2.00;;;;;;;12.73;42.50;97771.13;6296102;28;20040;-70
2022/10/09 13:31:05;;;;;;;4.72;2.65;;;;;;;12.60;43.13;97780.75;6295596;28;20178;-70
2022/10/09 13:34:15;;;;;;;13.98;6.35;;;;;;;12.46;43.42;97773.63;6293971;28;20453;-69
2022/10/09 13:37:22;;;;;;;9.07;4.78;;;;;;;12.30;43.75;97778.06;6295746;28;20041;-70
2022/10/09 13:40:26;;;;;;;6.40;3.55;;;;;;;12.20;43.88;97774.25;6295681;28;20044;-69
2022/10/09 13:43:29;;;;;;;7.82;3.08;;;;;;;12.07;44.56;97782.03;6295117;28;20498;-69
2022/10/09 13:46:31;;;;;;;6.38;2.80;;;;;;;11.90;44.76;97783.81;6295522;28;20040;-70
2022/10/09 13:49:32;;;;;;;4.53;2.47;;;;;;;11.81;45.08;97781.66;6293528;28;20064;-69
2022/10/09 13:52:36;;;;;;;3.28;2.00;;;;;;;11.79;45.49;97794.06;6294866;28;20051;-69
2022/10/09 13:55:40;;;;;;;;;;;;;;;11.66;44.87;97796.53;6295807;28;20410;-69
2022/10/09 13:58:44;;;;;;;3.08;1.90;;;;;;;11.66;45.87;97799.19;6295416;28;19997;-70
2022/10/09 14:01:45;;;;;;;6.63;1.85;;;;;;;11.68;45.69;97801.72;6294521;28;20051;-70
2022/10/09 14:04:50;;;;;;;6.32;2.25;;;;;;;11.57;46.30;97804.94;6295076;28;20528;-69
2022/10/09 14:07:51;;;;;;;5.13;2.33;;;;;;;11.57;46.39;97804.94;6294947;28;20554;-69
2022/10/09 14:10:53;;;;;;;2.70;1.83;;;;;;;11.57;46.45;97804.94;6294867;28;20047;-70
2022/10/09 14:13:54;;;;;;;6.88;2.15;;;;;;;11.53;46.67;97813.94;6295079;28;20098;-70
2022/10/09 14:16:58;;;;;;;6.05;2.25;;;;;;;11.62;46.43;97813.44;6296782;28;20516;-69
2022/10/09 14:20:00;;;;;;;4.85;2.47;;;;;;;11.59;46.87;97824.16;6300020;28;20425;-70
2022/10/09 14:23:03;;;;;;;6.28;2.60;;;;;;;11.50;46.83;97819.38;6299867;28;20056;-70
2022/10/09 14:26:06;;;;;;;7.68;3.33;;;;;;;11.44;47.21;97825.00;6300420;28;20036;-69
2022/10/09 14:29:11;;;;;;;9.30;4.07;;;;;;;11.51;47.32;97831.63;6300125;28;20178;-70
2022/10/09 14:32:13;;;;;;;7.68;5.47;;;;;;;11.45;47.54;97824.03;6298548;28;20387;-69
2022/10/09 14:35:20;;;;;;;12.77;6.53;;;;;;;11.40;47.49;97829.53;6300184;28;20044;-69
2022/10/09 14:38:24;;;;;;;10.70;4.85;;;;;;;11.39;47.39;97822.59;6299913;28;20098;-70
2022/10/09 14:41:28;;;;;;;7.80;3.80;;;;;;;11.41;47.79;97833.06;6299704;28;20549;-70
2022/10/09 14:44:34;;;;;;;6.70;3.65;;;;;;;11.45;47.64;97822.25;6299671;28;20527;-70